Carnival Destiny — C6FN4 — position and weather

sailwx.info

Track history (hours):
 
Tides and Currents Weather Stations Pressure Air Temp Water Temp Dewpoint Dewpoint Depression Visibility Wind Speed Wind Dir Waves Ship Positions

Carnival Destiny

Operator: Carnival Cruise Lines

Last reported at 2018-May-17 11:00 UTC. Time now 2018-May-20 21:21 UTC.
Position N 24°30' W 074°24'.

Type: Passenger vessel. MMSI: 308017000.

Wind from 130 at 25 knots

Barometer 1016.0 mb
Air temperature 27.0 ° C
Visibility: greater than 10.8 NM
Dewpoint 24.1 ° C
Water temperature 24.0 ° C

Date/timePositionNaut miles runAvg speedWind from/ knotsBaromVisibWave heightAir tempDewpointWater temp
2018-May-17 11:00N 24°30' W 074°24'25710.7 130 / 251016.010.8 27.024.124.0
2018-May-16 11:00N 21°24' W 071°12'81 7.4 110 / 281015.010.8 26.023.120.0
2018-May-16 00:00N 20°06' W 070°48'172 8.2 090 / 251015.010.8 25.022.024.0
2018-May-15 03:00N 21°54' W 073°12'29118.2 100 / 351018.010.8 28.025.227.0
2018-May-14 11:00N 25°54' W 076°12'238 8.7 090 / 281018.010.8 23.019.920.0
2018-May-13 07:31N 28°06' W 079°55'018.6
2018-May-13 07:30N 28°06' W 079°55'15618.4
2018-May-12 23:00N 26°54' W 077°18'60218.8 100 / 101019.0 5.4 25.025.024.6
2018-May-11 15:00N 21°24' W 068°06'30919.9 120 / 151020.010.8 26.023.126.0
2018-May-10 23:26N 18°27' W 063°37'820.1
2018-May-10 23:01N 18°20' W 063°31'1220.1
2018-May-10 22:25N 18°12' W 063°23'919.7
2018-May-10 21:58N 18°05' W 063°16'918.1
2018-May-10 21:28N 18°00' W 063°08'5 8.7
2018-May-10 20:55N 18°01' W 063°03'0 0.0
2018-May-10 20:28N 18°01' W 063°03'0 0.0
2018-May-10 19:58N 18°01' W 063°03'0 0.0
2018-May-10 19:28N 18°01' W 063°03'0 0.0
2018-May-10 18:58N 18°01' W 063°03'0 0.0
2018-May-10 18:28N 18°01' W 063°03'0 0.0
2018-May-10 17:58N 18°01' W 063°03'0 0.0
2018-May-10 17:28N 18°01' W 063°03'0 0.0
2018-May-10 16:58N 18°01' W 063°03'0 0.0
2018-May-10 16:13N 18°01' W 063°03'0 0.0
2018-May-10 15:58N 18°01' W 063°03'0 0.0
2018-May-10 15:28N 18°01' W 063°03'0 0.0
2018-May-10 14:58N 18°01' W 063°03'0 0.0
2018-May-10 14:28N 18°01' W 063°03'0 0.0
2018-May-10 13:34N 18°01' W 063°03'0 0.0
2018-May-10 13:19N 18°01' W 063°03'3 8.5
2018-May-10 13:00N 18°00' W 063°00'3 7.4 090 / 201019.010.8 26.024.626.0
2018-May-10 12:37N 18°01' W 063°03'0 0.0
2018-May-10 12:22N 18°01' W 063°03'0 0.0
2018-May-10 11:46N 18°01' W 063°03'0 0.0
2018-May-10 11:22N 18°01' W 063°03'0 0.1
2018-May-10 10:53N 18°01' W 063°03'2 3.9
2018-May-10 10:24N 18°00' W 063°05'4 9.2
2018-May-10 09:57N 18°00' W 063°09'4 8.5
2018-May-10 09:29N 18°01' W 063°13'4 8.8
2018-May-10 08:59N 18°02' W 063°17'5 8.6
2018-May-10 08:27N 18°04' W 063°22'4 8.8
2018-May-10 08:00N 18°06' W 063°26'5 9.3
2018-May-10 07:30N 18°08' W 063°30'5 9.3
2018-May-10 07:00N 18°09' W 063°35'4 8.6
2018-May-10 06:30N 18°08' W 063°39'5 9.4
2018-May-10 06:00N 18°04' W 063°42'5 9.5
2018-May-10 05:29N 17°60' W 063°45'4 8.8
2018-May-10 04:59N 17°56' W 063°42'5 9.7
2018-May-10 04:29N 17°54' W 063°37'510.3
2018-May-10 03:59N 17°52' W 063°32'613.3
2018-May-10 03:30N 17°49' W 063°26'816.2
2018-May-10 03:00N 17°46' W 063°19'1215.3
2018-May-10 02:14N 17°38' W 063°10'716.1
2018-May-10 01:49N 17°32' W 063°07'616.5
2018-May-10 01:29N 17°27' W 063°03'1216.4
2018-May-10 00:44N 17°20' W 062°53'416.2
2018-May-10 00:29N 17°17' W 062°50'613.0
2018-May-10 00:00N 17°17' W 062°43'0 0.0
2018-May-09 12:58N 17°17' W 062°43'1716.1
2018-May-09 11:57N 17°24' W 062°59'918.3
2018-May-09 11:26N 17°31' W 063°05'1118.2
2018-May-09 10:50N 17°40' W 063°12'718.3
2018-May-09 10:28N 17°44' W 063°18'342727.8
2018-May-09 10:00N 17°42' W 069°18'33520413.9 090 / 251017.010.8 26.023.120.0
2018-May-09 09:59N 17°47' W 063°27'918.0
2018-May-09 09:29N 17°51' W 063°35'917.8
2018-May-09 08:59N 17°56' W 063°43'8216.4
2018-May-09 04:00N 18°18' W 065°06'31111.5 090 / 251018.010.8 27.024.126.0
2018-May-08 01:00N 21°00' W 069°48'   150 / 251015.010.8 26.023.125.0
Track history (hours):
 
Tides and Currents Weather Stations Pressure Air Temp Water Temp Dewpoint Dewpoint Depression Visibility Wind Speed Wind Dir Waves Ship Positions

Carnival Destiny

Operator: Carnival Cruise Lines

Last reported at 2018-May-17 11:00 UTC. Time now 2018-May-20 21:21 UTC.
Position N 24°30' W 074°24'.

Type: Passenger vessel. MMSI: 308017000.

Wind from 130 at 25 knots

Barometer 1016.0 mb
Air temperature 27.0 ° C
Visibility: greater than 10.8 NM
Dewpoint 24.1 ° C
Water temperature 24.0 ° C

Date/timePositionNaut miles runAvg speedWind from/ knotsBaromVisibWave heightAir tempDewpointWater temp
2018-May-17 11:00N 24°30' W 074°24'25710.7 130 / 251016.010.8 27.024.124.0
2018-May-16 11:00N 21°24' W 071°12'81 7.4 110 / 281015.010.8 26.023.120.0
2018-May-16 00:00N 20°06' W 070°48'172 8.2 090 / 251015.010.8 25.022.024.0
2018-May-15 03:00N 21°54' W 073°12'29118.2 100 / 351018.010.8 28.025.227.0
2018-May-14 11:00N 25°54' W 076°12'238 8.7 090 / 281018.010.8 23.019.920.0
2018-May-13 07:31N 28°06' W 079°55'018.6
2018-May-13 07:30N 28°06' W 079°55'15618.4
2018-May-12 23:00N 26°54' W 077°18'60218.8 100 / 101019.0 5.4 25.025.024.6
2018-May-11 15:00N 21°24' W 068°06'30919.9 120 / 151020.010.8 26.023.126.0
2018-May-10 23:26N 18°27' W 063°37'820.1
2018-May-10 23:01N 18°20' W 063°31'1220.1
2018-May-10 22:25N 18°12' W 063°23'919.7
2018-May-10 21:58N 18°05' W 063°16'918.1
2018-May-10 21:28N 18°00' W 063°08'5 8.7
2018-May-10 20:55N 18°01' W 063°03'0 0.0
2018-May-10 20:28N 18°01' W 063°03'0 0.0
2018-May-10 19:58N 18°01' W 063°03'0 0.0
2018-May-10 19:28N 18°01' W 063°03'0 0.0
2018-May-10 18:58N 18°01' W 063°03'0 0.0
2018-May-10 18:28N 18°01' W 063°03'0 0.0
2018-May-10 17:58N 18°01' W 063°03'0 0.0
2018-May-10 17:28N 18°01' W 063°03'0 0.0
2018-May-10 16:58N 18°01' W 063°03'0 0.0
2018-May-10 16:13N 18°01' W 063°03'0 0.0
2018-May-10 15:58N 18°01' W 063°03'0 0.0
2018-May-10 15:28N 18°01' W 063°03'0 0.0
2018-May-10 14:58N 18°01' W 063°03'0 0.0
2018-May-10 14:28N 18°01' W 063°03'0 0.0
2018-May-10 13:34N 18°01' W 063°03'0 0.0
2018-May-10 13:19N 18°01' W 063°03'3 8.5
2018-May-10 13:00N 18°00' W 063°00'3 7.4 090 / 201019.010.8 26.024.626.0
2018-May-10 12:37N 18°01' W 063°03'0 0.0
2018-May-10 12:22N 18°01' W 063°03'0 0.0
2018-May-10 11:46N 18°01' W 063°03'0 0.0
2018-May-10 11:22N 18°01' W 063°03'0 0.1
2018-May-10 10:53N 18°01' W 063°03'2 3.9
2018-May-10 10:24N 18°00' W 063°05'4 9.2
2018-May-10 09:57N 18°00' W 063°09'4 8.5
2018-May-10 09:29N 18°01' W 063°13'4 8.8
2018-May-10 08:59N 18°02' W 063°17'5 8.6
2018-May-10 08:27N 18°04' W 063°22'4 8.8
2018-May-10 08:00N 18°06' W 063°26'5 9.3
2018-May-10 07:30N 18°08' W 063°30'5 9.3
2018-May-10 07:00N 18°09' W 063°35'4 8.6
2018-May-10 06:30N 18°08' W 063°39'5 9.4
2018-May-10 06:00N 18°04' W 063°42'5 9.5
2018-May-10 05:29N 17°60' W 063°45'4 8.8
2018-May-10 04:59N 17°56' W 063°42'5 9.7
2018-May-10 04:29N 17°54' W 063°37'510.3
2018-May-10 03:59N 17°52' W 063°32'613.3
2018-May-10 03:30N 17°49' W 063°26'816.2
2018-May-10 03:00N 17°46' W 063°19'1215.3
2018-May-10 02:14N 17°38' W 063°10'716.1
2018-May-10 01:49N 17°32' W 063°07'616.5
2018-May-10 01:29N 17°27' W 063°03'1216.4
2018-May-10 00:44N 17°20' W 062°53'416.2
2018-May-10 00:29N 17°17' W 062°50'613.0
2018-May-10 00:00N 17°17' W 062°43'0 0.0
2018-May-09 12:58N 17°17' W 062°43'1716.1
2018-May-09 11:57N 17°24' W 062°59'918.3
2018-May-09 11:26N 17°31' W 063°05'1118.2
2018-May-09 10:50N 17°40' W 063°12'718.3
2018-May-09 10:28N 17°44' W 063°18'342727.8
2018-May-09 10:00N 17°42' W 069°18'33520413.9 090 / 251017.010.8 26.023.120.0
2018-May-09 09:59N 17°47' W 063°27'918.0
2018-May-09 09:29N 17°51' W 063°35'917.8
2018-May-09 08:59N 17°56' W 063°43'8216.4
2018-May-09 04:00N 18°18' W 065°06'31111.5 090 / 251018.010.8 27.024.126.0
2018-May-08 01:00N 21°00' W 069°48'   150 / 251015.010.8 26.023.125.0

Dump ship's entire track history